sensor_id;sensor_type;location;lat;lon;timestamp;temperature;humidity
30037;DHT22;36325;51.512;-0.382;2022-07-23T00:00:24;17.70;99.90
30037;DHT22;36325;51.512;-0.382;2022-07-23T00:02:51;17.80;99.90
30037;DHT22;36325;51.512;-0.382;2022-07-23T00:05:18;17.80;99.90
30037;DHT22;36325;51.512;-0.382;2022-07-23T00:07:46;17.80;99.90
30037;DHT22;36325;51.512;-0.382;2022-07-23T00:10:13;17.80;99.90
30037;DHT22;36325;51.512;-0.382;2022-07-23T00:12:40;17.80;99.90
30037;DHT22;36325;51.512;-0.382;2022-07-23T00:15:18;17.80;99.90
30037;DHT22;36325;51.512;-0.382;2022-07-23T00:17:46;19.70;99.90
30037;DHT22;36325;51.512;-0.382;2022-07-23T00:20:14;17.90;99.90
30037;DHT22;36325;51.512;-0.382;2022-07-23T00:22:49;17.80;99.90
30037;DHT22;36325;51.512;-0.382;2022-07-23T00:25:17;17.80;99.90
30037;DHT22;36325;51.512;-0.382;2022-07-23T00:27:55;17.80;99.90
30037;DHT22;36325;51.512;-0.382;2022-07-23T00:30:23;17.80;99.90
30037;DHT22;36325;51.512;-0.382;2022-07-23T00:32:54;17.80;99.90
30037;DHT22;36325;51.512;-0.382;2022-07-23T00:35:25;17.80;99.90
30037;DHT22;36325;51.512;-0.382;2022-07-23T00:37:54;17.70;99.90
30037;DHT22;36325;51.512;-0.382;2022-07-23T00:40:22;17.60;99.90
30037;DHT22;36325;51.512;-0.382;2022-07-23T00:42:49;17.60;99.90
30037;DHT22;36325;51.512;-0.382;2022-07-23T00:45:17;17.50;99.90
30037;DHT22;36325;51.512;-0.382;2022-07-23T00:47:45;17.40;99.90
30037;DHT22;36325;51.512;-0.382;2022-07-23T00:50:12;17.40;99.90
30037;DHT22;36325;51.512;-0.382;2022-07-23T00:52:41;17.30;99.90
30037;DHT22;36325;51.512;-0.382;2022-07-23T00:55:10;17.20;99.90
30037;DHT22;36325;51.512;-0.382;2022-07-23T00:57:38;17.20;99.90
30037;DHT22;36325;51.512;-0.382;2022-07-23T01:00:09;17.20;99.90
30037;DHT22;36325;51.512;-0.382;2022-07-23T01:02:43;17.10;99.90
30037;DHT22;36325;51.512;-0.382;2022-07-23T01:05:15;17.10;99.90
30037;DHT22;36325;51.512;-0.382;2022-07-23T01:07:45;17.10;99.90
30037;DHT22;36325;51.512;-0.382;2022-07-23T01:10:13;17.10;99.90
30037;DHT22;36325;51.512;-0.382;2022-07-23T01:15:30;17.20;99.90
30037;DHT22;36325;51.512;-0.382;2022-07-23T01:17:57;17.20;99.90
30037;DHT22;36325;51.512;-0.382;2022-07-23T01:20:26;17.20;99.90
30037;DHT22;36325;51.512;-0.382;2022-07-23T01:22:53;17.20;99.90
30037;DHT22;36325;51.512;-0.382;2022-07-23T01:25:21;17.30;99.90
30037;DHT22;36325;51.512;-0.382;2022-07-23T01:27:58;17.30;99.90
30037;DHT22;36325;51.512;-0.382;2022-07-23T01:30:25;17.30;99.90
30037;DHT22;36325;51.512;-0.382;2022-07-23T01:32:54;17.30;99.90
30037;DHT22;36325;51.512;-0.382;2022-07-23T01:35:21;17.30;99.90
30037;DHT22;36325;51.512;-0.382;2022-07-23T01:37:50;17.20;99.90
30037;DHT22;36325;51.512;-0.382;2022-07-23T01:40:19;17.20;99.90
30037;DHT22;36325;51.512;-0.382;2022-07-23T01:42:47;17.20;99.90
30037;DHT22;36325;51.512;-0.382;2022-07-23T01:45:15;17.10;99.90
30037;DHT22;36325;51.512;-0.382;2022-07-23T01:47:48;17.10;99.90
30037;DHT22;36325;51.512;-0.382;2022-07-23T01:50:16;17.10;99.90
30037;DHT22;36325;51.512;-0.382;2022-07-23T01:52:58;17.10;99.90
30037;DHT22;36325;51.512;-0.382;2022-07-23T01:55:26;17.00;99.90
30037;DHT22;36325;51.512;-0.382;2022-07-23T01:57:53;16.90;99.90
30037;DHT22;36325;51.512;-0.382;2022-07-23T02:00:26;16.90;99.90
30037;DHT22;36325;51.512;-0.382;2022-07-23T02:02:53;16.90;99.90
30037;DHT22;36325;51.512;-0.382;2022-07-23T02:05:21;16.80;99.90
30037;DHT22;36325;51.512;-0.382;2022-07-23T02:07:49;16.80;99.90
30037;DHT22;36325;51.512;-0.382;2022-07-23T02:10:16;16.80;99.90
30037;DHT22;36325;51.512;-0.382;2022-07-23T02:12:43;16.80;99.90
30037;DHT22;36325;51.512;-0.382;2022-07-23T02:15:10;16.80;99.90
30037;DHT22;36325;51.512;-0.382;2022-07-23T02:17:39;16.80;99.90
30037;DHT22;36325;51.512;-0.382;2022-07-23T02:20:07;16.80;99.90
30037;DHT22;36325;51.512;-0.382;2022-07-23T02:22:35;16.90;99.90
30037;DHT22;36325;51.512;-0.382;2022-07-23T02:25:04;16.80;99.90
30037;DHT22;36325;51.512;-0.382;2022-07-23T02:27:31;16.80;99.90
30037;DHT22;36325;51.512;-0.382;2022-07-23T02:29:59;16.80;99.90
30037;DHT22;36325;51.512;-0.382;2022-07-23T02:32:26;16.70;99.90
30037;DHT22;36325;51.512;-0.382;2022-07-23T02:34:53;16.70;99.90
30037;DHT22;36325;51.512;-0.382;2022-07-23T02:37:21;16.70;99.90
30037;DHT22;36325;51.512;-0.382;2022-07-23T02:39:48;16.70;99.90
30037;DHT22;36325;51.512;-0.382;2022-07-23T02:42:16;16.80;99.90
30037;DHT22;36325;51.512;-0.382;2022-07-23T02:44:43;16.80;99.90
30037;DHT22;36325;51.512;-0.382;2022-07-23T02:47:11;16.80;99.90
30037;DHT22;36325;51.512;-0.382;2022-07-23T02:49:38;16.90;99.90
30037;DHT22;36325;51.512;-0.382;2022-07-23T02:52:07;16.90;99.90
30037;DHT22;36325;51.512;-0.382;2022-07-23T02:54:34;16.90;99.90
30037;DHT22;36325;51.512;-0.382;2022-07-23T02:57:03;17.00;99.90
30037;DHT22;36325;51.512;-0.382;2022-07-23T02:59:30;17.00;99.90
30037;DHT22;36325;51.512;-0.382;2022-07-23T03:01:57;17.00;99.90
30037;DHT22;36325;51.512;-0.382;2022-07-23T03:04:26;17.10;99.90
30037;DHT22;36325;51.512;-0.382;2022-07-23T03:06:55;17.10;99.90
30037;DHT22;36325;51.512;-0.382;2022-07-23T03:09:23;17.10;99.90
30037;DHT22;36325;51.512;-0.382;2022-07-23T03:11:51;17.10;99.90
30037;DHT22;36325;51.512;-0.382;2022-07-23T03:14:19;17.10;99.90
30037;DHT22;36325;51.512;-0.382;2022-07-23T03:16:46;17.10;99.90
30037;DHT22;36325;51.512;-0.382;2022-07-23T03:19:13;17.10;99.90
30037;DHT22;36325;51.512;-0.382;2022-07-23T03:21:41;17.10;99.90
30037;DHT22;36325;51.512;-0.382;2022-07-23T03:24:08;17.10;99.90
30037;DHT22;36325;51.512;-0.382;2022-07-23T03:26:36;17.10;99.90
30037;DHT22;36325;51.512;-0.382;2022-07-23T03:29:04;17.10;99.90
30037;DHT22;36325;51.512;-0.382;2022-07-23T03:31:31;17.10;99.90
30037;DHT22;36325;51.512;-0.382;2022-07-23T03:33:59;17.10;99.90
30037;DHT22;36325;51.512;-0.382;2022-07-23T03:36:26;17.10;99.90
30037;DHT22;36325;51.512;-0.382;2022-07-23T03:38:55;17.10;99.90
30037;DHT22;36325;51.512;-0.382;2022-07-23T03:41:22;17.00;99.90
30037;DHT22;36325;51.512;-0.382;2022-07-23T03:43:49;17.00;99.90
30037;DHT22;36325;51.512;-0.382;2022-07-23T03:46:16;16.90;99.90
30037;DHT22;36325;51.512;-0.382;2022-07-23T03:48:44;16.80;99.90
30037;DHT22;36325;51.512;-0.382;2022-07-23T03:51:13;16.70;99.90
30037;DHT22;36325;51.512;-0.382;2022-07-23T03:53:40;16.80;99.90
30037;DHT22;36325;51.512;-0.382;2022-07-23T03:56:07;16.70;99.90
30037;DHT22;36325;51.512;-0.382;2022-07-23T03:58:34;16.60;99.90
30037;DHT22;36325;51.512;-0.382;2022-07-23T04:01:02;16.60;99.90
30037;DHT22;36325;51.512;-0.382;2022-07-23T04:03:29;16.50;99.90
30037;DHT22;36325;51.512;-0.382;2022-07-23T04:05:56;16.60;99.90
30037;DHT22;36325;51.512;-0.382;2022-07-23T04:08:24;16.50;99.90
30037;DHT22;36325;51.512;-0.382;2022-07-23T04:10:52;16.40;99.90
30037;DHT22;36325;51.512;-0.382;2022-07-23T04:13:21;16.40;99.90
30037;DHT22;36325;51.512;-0.382;2022-07-23T04:15:49;16.40;99.90
30037;DHT22;36325;51.512;-0.382;2022-07-23T04:18:17;16.40;99.90
30037;DHT22;36325;51.512;-0.382;2022-07-23T04:20:53;16.30;99.90
30037;DHT22;36325;51.512;-0.382;2022-07-23T04:23:21;16.30;99.90
30037;DHT22;36325;51.512;-0.382;2022-07-23T04:25:49;16.30;99.90
30037;DHT22;36325;51.512;-0.382;2022-07-23T04:28:17;16.30;99.90
30037;DHT22;36325;51.512;-0.382;2022-07-23T04:30:44;16.20;99.90
30037;DHT22;36325;51.512;-0.382;2022-07-23T04:33:13;16.20;99.90
30037;DHT22;36325;51.512;-0.382;2022-07-23T04:35:40;16.20;99.90
30037;DHT22;36325;51.512;-0.382;2022-07-23T04:38:14;16.20;99.90
30037;DHT22;36325;51.512;-0.382;2022-07-23T04:40:42;16.20;99.90
30037;DHT22;36325;51.512;-0.382;2022-07-23T04:43:10;16.20;99.90
30037;DHT22;36325;51.512;-0.382;2022-07-23T04:45:45;16.20;99.90
30037;DHT22;36325;51.512;-0.382;2022-07-23T04:48:12;16.20;99.90
30037;DHT22;36325;51.512;-0.382;2022-07-23T04:50:40;16.20;99.90
30037;DHT22;36325;51.512;-0.382;2022-07-23T04:53:22;16.20;99.90
30037;DHT22;36325;51.512;-0.382;2022-07-23T04:55:52;16.20;99.90
30037;DHT22;36325;51.512;-0.382;2022-07-23T04:58:19;16.20;99.90
30037;DHT22;36325;51.512;-0.382;2022-07-23T05:00:47;16.30;99.90
30037;DHT22;36325;51.512;-0.382;2022-07-23T05:03:16;16.30;99.90
30037;DHT22;36325;51.512;-0.382;2022-07-23T05:05:46;16.30;99.90
30037;DHT22;36325;51.512;-0.382;2022-07-23T05:08:16;16.30;99.90
30037;DHT22;36325;51.512;-0.382;2022-07-23T05:10:48;16.30;99.90
30037;DHT22;36325;51.512;-0.382;2022-07-23T05:13:17;16.40;99.90
30037;DHT22;36325;51.512;-0.382;2022-07-23T05:15:45;16.50;99.90
30037;DHT22;36325;51.512;-0.382;2022-07-23T05:18:13;16.50;99.90
30037;DHT22;36325;51.512;-0.382;2022-07-23T05:20:41;16.60;99.90
30037;DHT22;36325;51.512;-0.382;2022-07-23T05:23:11;16.60;99.90
30037;DHT22;36325;51.512;-0.382;2022-07-23T05:25:40;16.70;99.90
30037;DHT22;36325;51.512;-0.382;2022-07-23T05:28:08;16.70;99.90
30037;DHT22;36325;51.512;-0.382;2022-07-23T05:30:35;16.70;99.90
30037;DHT22;36325;51.512;-0.382;2022-07-23T05:33:05;16.70;99.90
30037;DHT22;36325;51.512;-0.382;2022-07-23T05:35:34;16.70;99.90
30037;DHT22;36325;51.512;-0.382;2022-07-23T05:38:28;16.70;99.90
30037;DHT22;36325;51.512;-0.382;2022-07-23T05:40:58;16.80;99.90
30037;DHT22;36325;51.512;-0.382;2022-07-23T05:43:26;16.80;99.90
30037;DHT22;36325;51.512;-0.382;2022-07-23T05:45:54;16.90;99.90
30037;DHT22;36325;51.512;-0.382;2022-07-23T05:48:22;17.00;99.90
30037;DHT22;36325;51.512;-0.382;2022-07-23T05:51:01;16.20;99.90
30037;DHT22;36325;51.512;-0.382;2022-07-23T05:53:31;17.00;99.90
30037;DHT22;36325;51.512;-0.382;2022-07-23T05:56:18;17.00;99.90
30037;DHT22;36325;51.512;-0.382;2022-07-23T05:58:45;17.00;99.90
30037;DHT22;36325;51.512;-0.382;2022-07-23T06:01:15;16.90;99.90
30037;DHT22;36325;51.512;-0.382;2022-07-23T06:04:06;17.00;99.90
30037;DHT22;36325;51.512;-0.382;2022-07-23T06:06:37;17.00;99.90
30037;DHT22;36325;51.512;-0.382;2022-07-23T06:09:07;17.00;99.90
30037;DHT22;36325;51.512;-0.382;2022-07-23T06:11:34;17.00;99.90
30037;DHT22;36325;51.512;-0.382;2022-07-23T06:14:02;17.00;99.90
30037;DHT22;36325;51.512;-0.382;2022-07-23T06:16:48;17.10;99.90
30037;DHT22;36325;51.512;-0.382;2022-07-23T06:19:16;17.00;99.90
30037;DHT22;36325;51.512;-0.382;2022-07-23T06:21:43;17.10;99.90
30037;DHT22;36325;51.512;-0.382;2022-07-23T06:24:14;17.10;99.90
30037;DHT22;36325;51.512;-0.382;2022-07-23T06:26:41;17.10;99.90
30037;DHT22;36325;51.512;-0.382;2022-07-23T06:29:08;17.20;99.90
30037;DHT22;36325;51.512;-0.382;2022-07-23T06:31:36;17.20;99.90
30037;DHT22;36325;51.512;-0.382;2022-07-23T06:34:04;17.20;99.90
30037;DHT22;36325;51.512;-0.382;2022-07-23T06:36:31;17.30;99.90
30037;DHT22;36325;51.512;-0.382;2022-07-23T06:38:58;17.40;99.90
30037;DHT22;36325;51.512;-0.382;2022-07-23T06:41:26;17.50;99.90
30037;DHT22;36325;51.512;-0.382;2022-07-23T06:43:55;17.50;99.90
30037;DHT22;36325;51.512;-0.382;2022-07-23T06:46:22;17.60;99.90
30037;DHT22;36325;51.512;-0.382;2022-07-23T06:48:51;17.60;99.90
30037;DHT22;36325;51.512;-0.382;2022-07-23T06:51:18;17.70;99.90
30037;DHT22;36325;51.512;-0.382;2022-07-23T06:53:45;17.70;99.90
30037;DHT22;36325;51.512;-0.382;2022-07-23T06:56:13;17.80;99.90
30037;DHT22;36325;51.512;-0.382;2022-07-23T06:58:40;17.90;99.90
30037;DHT22;36325;51.512;-0.382;2022-07-23T07:01:07;18.00;99.90
30037;DHT22;36325;51.512;-0.382;2022-07-23T07:03:35;18.10;99.90
30037;DHT22;36325;51.512;-0.382;2022-07-23T07:06:02;18.20;99.90
30037;DHT22;36325;51.512;-0.382;2022-07-23T07:08:30;18.30;99.90
30037;DHT22;36325;51.512;-0.382;2022-07-23T07:10:57;18.40;99.90
30037;DHT22;36325;51.512;-0.382;2022-07-23T07:13:24;18.50;99.90
30037;DHT22;36325;51.512;-0.382;2022-07-23T07:15:51;18.50;99.90
30037;DHT22;36325;51.512;-0.382;2022-07-23T07:18:18;18.70;99.90
30037;DHT22;36325;51.512;-0.382;2022-07-23T07:20:46;18.70;99.90
30037;DHT22;36325;51.512;-0.382;2022-07-23T07:23:13;18.80;99.90
30037;DHT22;36325;51.512;-0.382;2022-07-23T07:25:43;19.00;99.90
30037;DHT22;36325;51.512;-0.382;2022-07-23T07:28:13;19.00;99.90
30037;DHT22;36325;51.512;-0.382;2022-07-23T07:30:41;19.20;99.90
30037;DHT22;36325;51.512;-0.382;2022-07-23T07:33:09;19.20;99.90
30037;DHT22;36325;51.512;-0.382;2022-07-23T07:35:36;19.30;99.90
30037;DHT22;36325;51.512;-0.382;2022-07-23T07:38:03;19.40;99.90
30037;DHT22;36325;51.512;-0.382;2022-07-23T07:40:30;19.50;99.90
30037;DHT22;36325;51.512;-0.382;2022-07-23T07:43:00;19.60;99.90
30037;DHT22;36325;51.512;-0.382;2022-07-23T07:45:28;19.70;99.90
30037;DHT22;36325;51.512;-0.382;2022-07-23T07:47:56;19.80;99.90
30037;DHT22;36325;51.512;-0.382;2022-07-23T07:50:24;20.00;99.90
30037;DHT22;36325;51.512;-0.382;2022-07-23T07:52:51;20.20;99.90
30037;DHT22;36325;51.512;-0.382;2022-07-23T07:55:18;20.20;99.90
30037;DHT22;36325;51.512;-0.382;2022-07-23T07:57:45;20.40;99.90
30037;DHT22;36325;51.512;-0.382;2022-07-23T08:00:13;20.40;99.90
30037;DHT22;36325;51.512;-0.382;2022-07-23T08:02:44;20.50;99.90
30037;DHT22;36325;51.512;-0.382;2022-07-23T08:05:13;20.70;99.90
30037;DHT22;36325;51.512;-0.382;2022-07-23T08:07:41;20.80;99.90
30037;DHT22;36325;51.512;-0.382;2022-07-23T08:10:09;20.80;99.90
30037;DHT22;36325;51.512;-0.382;2022-07-23T08:12:49;21.00;99.90
30037;DHT22;36325;51.512;-0.382;2022-07-23T08:15:19;21.10;99.90
30037;DHT22;36325;51.512;-0.382;2022-07-23T08:17:47;21.30;99.90
30037;DHT22;36325;51.512;-0.382;2022-07-23T08:20:20;21.50;99.90
30037;DHT22;36325;51.512;-0.382;2022-07-23T08:22:55;21.60;99.90
30037;DHT22;36325;51.512;-0.382;2022-07-23T08:25:28;21.80;99.90
30037;DHT22;36325;51.512;-0.382;2022-07-23T08:27:57;22.00;99.90
30037;DHT22;36325;51.512;-0.382;2022-07-23T08:30:24;22.10;99.90
30037;DHT22;36325;51.512;-0.382;2022-07-23T08:33:02;22.10;99.90
30037;DHT22;36325;51.512;-0.382;2022-07-23T08:35:32;22.20;99.90
30037;DHT22;36325;51.512;-0.382;2022-07-23T08:38:01;22.50;99.90
30037;DHT22;36325;51.512;-0.382;2022-07-23T08:40:31;22.60;99.90
30037;DHT22;36325;51.512;-0.382;2022-07-23T08:42:59;22.70;99.90
30037;DHT22;36325;51.512;-0.382;2022-07-23T08:45:27;22.80;99.90
30037;DHT22;36325;51.512;-0.382;2022-07-23T08:47:56;22.90;99.90
30037;DHT22;36325;51.512;-0.382;2022-07-23T08:50:25;22.80;99.90
30037;DHT22;36325;51.512;-0.382;2022-07-23T08:52:53;22.90;99.90
30037;DHT22;36325;51.512;-0.382;2022-07-23T08:55:21;23.00;99.90
30037;DHT22;36325;51.512;-0.382;2022-07-23T08:57:51;23.00;99.90
30037;DHT22;36325;51.512;-0.382;2022-07-23T09:00:20;23.10;99.90
30037;DHT22;36325;51.512;-0.382;2022-07-23T09:02:48;23.20;99.90
30037;DHT22;36325;51.512;-0.382;2022-07-23T09:05:17;23.50;99.90
30037;DHT22;36325;51.512;-0.382;2022-07-23T09:08:04;23.50;99.90
30037;DHT22;36325;51.512;-0.382;2022-07-23T09:10:43;23.90;99.90
30037;DHT22;36325;51.512;-0.382;2022-07-23T09:13:32;24.20;99.90
30037;DHT22;36325;51.512;-0.382;2022-07-23T09:16:03;24.40;99.90
30037;DHT22;36325;51.512;-0.382;2022-07-23T09:18:34;24.30;99.90
30037;DHT22;36325;51.512;-0.382;2022-07-23T09:28:59;24.70;99.90
30037;DHT22;36325;51.512;-0.382;2022-07-23T09:31:53;24.60;99.90
30037;DHT22;36325;51.512;-0.382;2022-07-23T09:34:27;24.60;99.90
30037;DHT22;36325;51.512;-0.382;2022-07-23T09:37:14;24.80;99.90
30037;DHT22;36325;51.512;-0.382;2022-07-23T09:39:43;25.00;99.90
30037;DHT22;36325;51.512;-0.382;2022-07-23T09:44:45;25.30;99.90
30037;DHT22;36325;51.512;-0.382;2022-07-23T09:47:13;25.40;99.90
30037;DHT22;36325;51.512;-0.382;2022-07-23T09:49:40;25.40;99.90
30037;DHT22;36325;51.512;-0.382;2022-07-23T09:52:07;25.60;99.90
30037;DHT22;36325;51.512;-0.382;2022-07-23T09:54:38;25.90;99.90
30037;DHT22;36325;51.512;-0.382;2022-07-23T09:57:11;26.00;99.90
30037;DHT22;36325;51.512;-0.382;2022-07-23T09:59:43;26.40;99.90
30037;DHT22;36325;51.512;-0.382;2022-07-23T10:02:13;26.40;99.90
30037;DHT22;36325;51.512;-0.382;2022-07-23T10:05:03;26.60;99.90
30037;DHT22;36325;51.512;-0.382;2022-07-23T10:07:51;26.70;99.90
30037;DHT22;36325;51.512;-0.382;2022-07-23T10:10:39;26.60;99.90
30037;DHT22;36325;51.512;-0.382;2022-07-23T10:13:25;26.80;99.90
30037;DHT22;36325;51.512;-0.382;2022-07-23T10:16:12;27.00;99.90
30037;DHT22;36325;51.512;-0.382;2022-07-23T10:18:40;27.10;98.90
30037;DHT22;36325;51.512;-0.382;2022-07-23T10:21:11;27.00;98.10
30037;DHT22;36325;51.512;-0.382;2022-07-23T10:24:28;27.10;97.90
30037;DHT22;36325;51.512;-0.382;2022-07-23T10:26:41;27.30;97.50
30037;DHT22;36325;51.512;-0.382;2022-07-23T10:31:55;27.50;95.70
30037;DHT22;36325;51.512;-0.382;2022-07-23T10:34:46;27.70;95.70
30037;DHT22;36325;51.512;-0.382;2022-07-23T10:37:28;28.00;94.90
30037;DHT22;36325;51.512;-0.382;2022-07-23T10:42:37;28.20;93.40
30037;DHT22;36325;51.512;-0.382;2022-07-23T10:45:34;28.40;93.10
30037;DHT22;36325;51.512;-0.382;2022-07-23T10:48:22;28.70;92.30
30037;DHT22;36325;51.512;-0.382;2022-07-23T10:51:11;28.90;91.50
30037;DHT22;36325;51.512;-0.382;2022-07-23T10:54:00;29.00;90.90
30037;DHT22;36325;51.512;-0.382;2022-07-23T10:56:51;29.00;90.60
30037;DHT22;36325;51.512;-0.382;2022-07-23T10:59:30;29.20;90.20
30037;DHT22;36325;51.512;-0.382;2022-07-23T11:02:20;29.40;90.30
30037;DHT22;36325;51.512;-0.382;2022-07-23T11:04:53;29.60;88.00
30037;DHT22;36325;51.512;-0.382;2022-07-23T11:07:20;29.90;88.70
30037;DHT22;36325;51.512;-0.382;2022-07-23T11:09:48;29.90;87.40
30037;DHT22;36325;51.512;-0.382;2022-07-23T11:17:25;30.10;84.10
30037;DHT22;36325;51.512;-0.382;2022-07-23T11:22:47;30.50;80.50
30037;DHT22;36325;51.512;-0.382;2022-07-23T11:27:50;30.90;78.30
30037;DHT22;36325;51.512;-0.382;2022-07-23T11:32:55;31.90;74.80
30037;DHT22;36325;51.512;-0.382;2022-07-23T11:35:46;31.70;74.60
30037;DHT22;36325;51.512;-0.382;2022-07-23T11:38:14;30.80;75.00
30037;DHT22;36325;51.512;-0.382;2022-07-23T11:40:48;30.40;75.30
30037;DHT22;36325;51.512;-0.382;2022-07-23T11:43:16;30.80;74.90
30037;DHT22;36325;51.512;-0.382;2022-07-23T11:45:46;31.10;75.00
30037;DHT22;36325;51.512;-0.382;2022-07-23T11:48:22;31.60;74.20
30037;DHT22;36325;51.512;-0.382;2022-07-23T11:50:51;32.20;73.80
30037;DHT22;36325;51.512;-0.382;2022-07-23T11:53:26;32.90;72.40
30037;DHT22;36325;51.512;-0.382;2022-07-23T11:56:06;33.30;69.80
30037;DHT22;36325;51.512;-0.382;2022-07-23T11:58:34;33.60;68.50
30037;DHT22;36325;51.512;-0.382;2022-07-23T12:01:01;34.30;69.50
30037;DHT22;36325;51.512;-0.382;2022-07-23T12:03:29;34.10;68.10
30037;DHT22;36325;51.512;-0.382;2022-07-23T12:05:58;34.00;66.70
30037;DHT22;36325;51.512;-0.382;2022-07-23T12:08:25;34.00;65.80
30037;DHT22;36325;51.512;-0.382;2022-07-23T12:10:53;34.00;65.30
30037;DHT22;36325;51.512;-0.382;2022-07-23T12:13:21;34.10;65.10
30037;DHT22;36325;51.512;-0.382;2022-07-23T12:15:52;34.50;64.00
30037;DHT22;36325;51.512;-0.382;2022-07-23T12:18:23;34.60;63.70
30037;DHT22;36325;51.512;-0.382;2022-07-23T12:20:52;34.80;63.30
30037;DHT22;36325;51.512;-0.382;2022-07-23T12:23:21;34.90;63.20
30037;DHT22;36325;51.512;-0.382;2022-07-23T12:25:50;35.20;62.50
30037;DHT22;36325;51.512;-0.382;2022-07-23T12:28:20;35.50;62.20
30037;DHT22;36325;51.512;-0.382;2022-07-23T12:30:51;35.70;61.30
30037;DHT22;36325;51.512;-0.382;2022-07-23T12:33:25;35.40;60.60
30037;DHT22;36325;51.512;-0.382;2022-07-23T12:35:55;35.20;60.50
30037;DHT22;36325;51.512;-0.382;2022-07-23T12:38:24;34.60;61.40
30037;DHT22;36325;51.512;-0.382;2022-07-23T12:40:56;33.50;62.60
30037;DHT22;36325;51.512;-0.382;2022-07-23T12:43:29;32.60;64.70
30037;DHT22;36325;51.512;-0.382;2022-07-23T12:46:10;33.00;65.40
30037;DHT22;36325;51.512;-0.382;2022-07-23T12:51:15;33.70;65.30
30037;DHT22;36325;51.512;-0.382;2022-07-23T12:53:46;34.30;64.60
30037;DHT22;36325;51.512;-0.382;2022-07-23T12:58:54;36.00;62.50
30037;DHT22;36325;51.512;-0.382;2022-07-23T13:04:19;36.90;60.80
30037;DHT22;36325;51.512;-0.382;2022-07-23T13:06:50;37.40;59.60
30037;DHT22;36325;51.512;-0.382;2022-07-23T13:09:22;37.80;59.00
30037;DHT22;36325;51.512;-0.382;2022-07-23T13:11:50;38.00;58.60
30037;DHT22;36325;51.512;-0.382;2022-07-23T13:14:19;38.70;58.30
30037;DHT22;36325;51.512;-0.382;2022-07-23T13:16:49;38.70;57.50
30037;DHT22;36325;51.512;-0.382;2022-07-23T13:19:17;38.60;57.20
30037;DHT22;36325;51.512;-0.382;2022-07-23T13:21:45;37.70;57.40
30037;DHT22;36325;51.512;-0.382;2022-07-23T13:24:13;36.90;58.00
30037;DHT22;36325;51.512;-0.382;2022-07-23T13:26:41;37.10;58.00
30037;DHT22;36325;51.512;-0.382;2022-07-23T13:29:08;37.80;57.50
30037;DHT22;36325;51.512;-0.382;2022-07-23T13:31:37;36.90;57.70
30037;DHT22;36325;51.512;-0.382;2022-07-23T13:34:05;36.00;58.40
30037;DHT22;36325;51.512;-0.382;2022-07-23T13:36:35;34.90;59.90
30037;DHT22;36325;51.512;-0.382;2022-07-23T13:39:02;34.00;61.50
30037;DHT22;36325;51.512;-0.382;2022-07-23T13:41:30;33.10;62.90
30037;DHT22;36325;51.512;-0.382;2022-07-23T13:43:59;32.40;64.50
30037;DHT22;36325;51.512;-0.382;2022-07-23T13:46:26;33.30;64.60
30037;DHT22;36325;51.512;-0.382;2022-07-23T13:48:53;33.50;64.80
30037;DHT22;36325;51.512;-0.382;2022-07-23T13:51:20;32.70;65.60
30037;DHT22;36325;51.512;-0.382;2022-07-23T13:53:48;31.30;67.80
30037;DHT22;36325;51.512;-0.382;2022-07-23T13:56:15;31.20;68.60
30037;DHT22;36325;51.512;-0.382;2022-07-23T13:58:42;31.00;70.00
30037;DHT22;36325;51.512;-0.382;2022-07-23T14:01:09;30.10;72.60
30037;DHT22;36325;51.512;-0.382;2022-07-23T14:03:36;30.00;73.30
30037;DHT22;36325;51.512;-0.382;2022-07-23T14:06:04;29.80;75.10
30037;DHT22;36325;51.512;-0.382;2022-07-23T14:08:39;29.50;76.70
30037;DHT22;36325;51.512;-0.382;2022-07-23T14:11:06;29.30;77.80
30037;DHT22;36325;51.512;-0.382;2022-07-23T14:13:34;29.10;78.90
30037;DHT22;36325;51.512;-0.382;2022-07-23T14:16:01;28.90;79.70
30037;DHT22;36325;51.512;-0.382;2022-07-23T14:18:30;28.20;81.00
30037;DHT22;36325;51.512;-0.382;2022-07-23T14:20:59;28.20;81.80
30037;DHT22;36325;51.512;-0.382;2022-07-23T14:23:28;27.90;83.40
30037;DHT22;36325;51.512;-0.382;2022-07-23T14:25:55;27.70;84.50
30037;DHT22;36325;51.512;-0.382;2022-07-23T14:28:22;27.60;85.60
30037;DHT22;36325;51.512;-0.382;2022-07-23T14:30:49;27.50;86.40
30037;DHT22;36325;51.512;-0.382;2022-07-23T14:33:17;27.40;87.10
30037;DHT22;36325;51.512;-0.382;2022-07-23T14:35:44;27.20;87.70
30037;DHT22;36325;51.512;-0.382;2022-07-23T14:38:12;27.30;88.60
30037;DHT22;36325;51.512;-0.382;2022-07-23T14:40:40;27.30;89.00
30037;DHT22;36325;51.512;-0.382;2022-07-23T14:43:09;27.40;89.40
30037;DHT22;36325;51.512;-0.382;2022-07-23T14:45:36;27.40;90.00
30037;DHT22;36325;51.512;-0.382;2022-07-23T14:48:04;27.40;90.40
30037;DHT22;36325;51.512;-0.382;2022-07-23T14:50:31;27.30;91.00
30037;DHT22;36325;51.512;-0.382;2022-07-23T14:52:59;27.10;91.70
30037;DHT22;36325;51.512;-0.382;2022-07-23T14:55:26;27.00;92.20
30037;DHT22;36325;51.512;-0.382;2022-07-23T14:57:53;27.00;92.70
30037;DHT22;36325;51.512;-0.382;2022-07-23T15:00:20;27.20;93.10
30037;DHT22;36325;51.512;-0.382;2022-07-23T15:03:07;27.40;93.00
30037;DHT22;36325;51.512;-0.382;2022-07-23T15:05:35;27.60;92.80
30037;DHT22;36325;51.512;-0.382;2022-07-23T15:08:02;27.60;93.20
30037;DHT22;36325;51.512;-0.382;2022-07-23T15:10:29;27.90;93.20
30037;DHT22;36325;51.512;-0.382;2022-07-23T15:12:56;27.60;93.50
30037;DHT22;36325;51.512;-0.382;2022-07-23T15:15:24;27.60;93.80
30037;DHT22;36325;51.512;-0.382;2022-07-23T15:17:51;27.30;94.40
30037;DHT22;36325;51.512;-0.382;2022-07-23T15:20:18;27.00;95.30
30037;DHT22;36325;51.512;-0.382;2022-07-23T15:23:02;26.90;95.90
30037;DHT22;36325;51.512;-0.382;2022-07-23T15:25:29;26.70;96.50
30037;DHT22;36325;51.512;-0.382;2022-07-23T15:27:59;26.50;96.90
30037;DHT22;36325;51.512;-0.382;2022-07-23T15:30:27;26.50;97.30
30037;DHT22;36325;51.512;-0.382;2022-07-23T15:32:55;26.70;97.20
30037;DHT22;36325;51.512;-0.382;2022-07-23T15:35:22;27.40;96.40
30037;DHT22;36325;51.512;-0.382;2022-07-23T15:37:49;27.70;95.80
30037;DHT22;36325;51.512;-0.382;2022-07-23T15:40:16;27.90;94.80
30037;DHT22;36325;51.512;-0.382;2022-07-23T15:42:43;27.90;95.10
30037;DHT22;36325;51.512;-0.382;2022-07-23T15:45:11;27.70;95.40
30037;DHT22;36325;51.512;-0.382;2022-07-23T15:47:38;27.40;95.90
30037;DHT22;36325;51.512;-0.382;2022-07-23T15:50:08;27.30;96.70
30037;DHT22;36325;51.512;-0.382;2022-07-23T15:52:36;26.90;97.00
30037;DHT22;36325;51.512;-0.382;2022-07-23T15:55:04;26.90;97.40
30037;DHT22;36325;51.512;-0.382;2022-07-23T15:57:31;26.90;98.10
30037;DHT22;36325;51.512;-0.382;2022-07-23T15:59:58;27.20;98.20
30037;DHT22;36325;51.512;-0.382;2022-07-23T16:02:26;28.10;97.60
30037;DHT22;36325;51.512;-0.382;2022-07-23T16:04:53;28.80;96.80
30037;DHT22;36325;51.512;-0.382;2022-07-23T16:07:20;28.80;96.50
30037;DHT22;36325;51.512;-0.382;2022-07-23T16:09:48;28.60;96.70
30037;DHT22;36325;51.512;-0.382;2022-07-23T16:12:15;28.00;97.30